Time;durP1;ratioP1;P1;durP2;ratioP2;P2;SDS_P1;SDS_P2;PMS_P1;PMS_P2;Temp;Humidity;BMP_temperature;BMP_pressure;BME280_temperature;BME280_humidity;BME280_pressure;Samples;Min_cycle;Max_cycle;Signal;HPM_P1;HPM_P2
2021/12/29 00:01:23;;;;;;;6.80;2.33;;;;;;;;;;6206647;23;20035;-44
2021/12/29 00:03:48;;;;;;;6.00;2.60;;;;;;;;;;6208123;23;20009;-46
2021/12/29 00:06:13;;;;;;;9.63;2.80;;;;;;;;;;6208610;23;20139;-44
2021/12/29 00:08:38;;;;;;;4.72;2.45;;;;;;;;;;6207703;23;20020;-44
2021/12/29 00:11:04;;;;;;;7.43;2.50;;;;;;;;;;6208189;23;20473;-44
2021/12/29 00:13:30;;;;;;;11.95;2.97;;;;;;;;;;6207274;23;20017;-44
2021/12/29 00:15:58;;;;;;;8.48;2.67;;;;;;;;;;6208143;23;20136;-46
2021/12/29 00:18:27;;;;;;;7.90;2.97;;;;;;;;;;6206942;23;20441;-44
2021/12/29 00:20:53;;;;;;;3.03;2.13;;;;;;;;;;6208082;23;20021;-44
2021/12/29 00:23:18;;;;;;;6.18;2.40;;;;;;;;;;6206978;23;20024;-43
2021/12/29 00:25:43;;;;;;;7.82;2.08;;;;;;;;;;6208020;23;20012;-44
2021/12/29 00:28:09;;;;;;;4.97;2.42;;;;;;;;;;6208203;23;20087;-44
2021/12/29 00:30:34;;;;;;;5.38;2.63;;;;;;;;;;6207449;23;20035;-44
2021/12/29 00:33:00;;;;;;;6.30;2.05;;;;;;;;;;6207765;23;20124;-44
2021/12/29 00:35:25;;;;;;;6.72;2.53;;;;;;;;;;6230679;23;20475;-45
2021/12/29 00:37:50;;;;;;;4.47;2.60;;;;;;;;;;6207891;23;20079;-44
2021/12/29 00:40:15;;;;;;;3.70;2.10;;;;;;;;;;6206913;23;20021;-44
2021/12/29 00:42:41;;;;;;;4.65;2.30;;;;;;;;;;6207959;23;20031;-44
2021/12/29 00:45:07;;;;;;;2.97;2.20;;;;;;;;;;6207707;23;20441;-44
2021/12/29 00:47:34;;;;;;;7.88;2.22;;;;;;;;;;6207097;23;20469;-44
2021/12/29 00:50:00;;;;;;;5.07;2.30;;;;;;;;;;6207249;23;20102;-44
2021/12/29 00:52:26;;;;;;;6.10;1.90;;;;;;;;;;6206858;23;20023;-45
2021/12/29 00:54:51;;;;;;;3.95;2.30;;;;;;;;;;6207913;23;20079;-44
2021/12/29 00:57:17;;;;;;;4.80;1.83;;;;;;;;;;6206980;23;20013;-44
2021/12/29 00:59:42;;;;;;;4.63;1.73;;;;;;;;;;6208120;23;20730;-44
2021/12/29 01:02:08;;;;;;;4.45;1.80;;;;;;;;;;6207821;23;20012;-44
2021/12/29 01:04:33;;;;;;;3.10;1.88;;;;;;;;;;6206883;23;20119;-44
2021/12/29 01:06:58;;;;;;;4.63;2.28;;;;;;;;;;6207744;23;20013;-43
2021/12/29 01:09:23;;;;;;;3.80;1.92;;;;;;;;;;6207031;23;20016;-45
2021/12/29 01:11:49;;;;;;;3.97;1.85;;;;;;;;;;6207716;23;20064;-45
2021/12/29 01:14:21;;;;;;;3.20;2.28;;;;;;;;;;6206580;23;20455;-47
2021/12/29 01:16:47;;;;;;;2.45;1.45;;;;;;;;;;6207264;23;20015;-46
2021/12/29 01:19:15;;;;;;;6.75;1.73;;;;;;;;;;6206678;23;20012;-45
2021/12/29 01:21:43;;;;;;;3.28;1.33;;;;;;;;;;6207445;23;20028;-46
2021/12/29 01:24:10;;;;;;;2.28;1.67;;;;;;;;;;6207441;23;20453;-44
2021/12/29 01:26:35;;;;;;;12.02;2.95;;;;;;;;;;6230128;23;20107;-45
2021/12/29 01:29:01;;;;;;;1.55;1.30;;;;;;;;;;6207334;23;20410;-45
2021/12/29 01:31:26;;;;;;;5.43;1.58;;;;;;;;;;6204921;23;20059;-44
2021/12/29 01:33:52;;;;;;;2.85;1.80;;;;;;;;;;6207463;23;20087;-44
2021/12/29 01:36:17;;;;;;;4.00;1.13;;;;;;;;;;6206737;23;20023;-45
2021/12/29 01:38:42;;;;;;;5.20;1.75;;;;;;;;;;6207554;23;20087;-44
2021/12/29 01:41:07;;;;;;;2.83;1.45;;;;;;;;;;6207125;23;20098;-47
2021/12/29 01:43:33;;;;;;;7.05;1.80;;;;;;;;;;6206347;23;20393;-45
2021/12/29 01:45:58;;;;;;;4.47;1.67;;;;;;;;;;6207201;23;20016;-43
2021/12/29 01:48:23;;;;;;;9.30;2.17;;;;;;;;;;6206827;23;20015;-44
2021/12/29 01:50:51;;;;;;;2.72;1.65;;;;;;;;;;6206428;23;20063;-46
2021/12/29 01:53:23;;;;;;;5.35;1.92;;;;;;;;;;6206794;23;20048;-44
2021/12/29 01:55:49;;;;;;;10.57;2.10;;;;;;;;;;6207735;23;20009;-44
2021/12/29 01:58:14;;;;;;;4.13;1.80;;;;;;;;;;6208839;23;20024;-44
2021/12/29 02:00:41;;;;;;;7.68;1.67;;;;;;;;;;6209128;23;20017;-44
2021/12/29 02:03:08;;;;;;;6.38;2.15;;;;;;;;;;6209203;23;20089;-44
2021/12/29 02:05:33;;;;;;;4.05;1.70;;;;;;;;;;6208482;23;20300;-48
2021/12/29 02:07:58;;;;;;;7.25;2.60;;;;;;;;;;6209313;23;20017;-44
2021/12/29 02:10:24;;;;;;;5.93;1.98;;;;;;;;;;6208424;23;20071;-44
2021/12/29 02:12:50;;;;;;;4.50;1.92;;;;;;;;;;6209394;23;20015;-44
2021/12/29 02:15:15;;;;;;;6.40;1.80;;;;;;;;;;6208742;23;20078;-46
2021/12/29 02:17:41;;;;;;;3.53;1.77;;;;;;;;;;6209388;23;20009;-47
2021/12/29 02:20:07;;;;;;;4.18;2.28;;;;;;;;;;6208855;23;20016;-46
2021/12/29 02:27:42;;;;;;;3.97;1.80;;;;;;;;;;6209081;23;20017;-44
2021/12/29 02:30:07;;;;;;;5.22;2.47;;;;;;;;;;6208734;23;20012;-44
2021/12/29 02:32:33;;;;;;;7.85;2.15;;;;;;;;;;6208649;23;20011;-45
2021/12/29 02:34:58;;;;;;;9.95;3.20;;;;;;;;;;6208776;23;20096;-44
2021/12/29 02:37:23;;;;;;;5.55;3.15;;;;;;;;;;6208610;23;20378;-49
2021/12/29 02:39:51;;;;;;;10.75;3.20;;;;;;;;;;6208821;23;20020;-46
2021/12/29 02:42:18;;;;;;;5.75;2.22;;;;;;;;;;6208691;23;20005;-45
2021/12/29 02:44:45;;;;;;;10.88;2.67;;;;;;;;;;6208413;23;20020;-45
2021/12/29 02:47:11;;;;;;;7.82;2.70;;;;;;;;;;6208369;23;20017;-46
2021/12/29 02:49:36;;;;;;;11.80;2.95;;;;;;;;;;6208526;23;20336;-47
2021/12/29 02:52:02;;;;;;;6.50;2.92;;;;;;;;;;6208883;23;20428;-45
2021/12/29 02:54:27;;;;;;;6.40;2.22;;;;;;;;;;6207899;23;20012;-46
2021/12/29 02:56:54;;;;;;;13.00;2.60;;;;;;;;;;6209319;23;20035;-48
2021/12/29 02:59:20;;;;;;;9.07;3.30;;;;;;;;;;6207880;23;20134;-46
2021/12/29 03:01:47;;;;;;;11.60;2.83;;;;;;;;;;6209070;23;20056;-45
2021/12/29 03:04:12;;;;;;;9.35;2.75;;;;;;;;;;6207928;23;20074;-45
2021/12/29 03:06:38;;;;;;;5.85;2.47;;;;;;;;;;6208746;23;20005;-44
2021/12/29 03:09:04;;;;;;;11.68;3.80;;;;;;;;;;6207862;23;20021;-45
2021/12/29 03:11:30;;;;;;;9.95;2.88;;;;;;;;;;6208101;23;20468;-45
2021/12/29 03:13:55;;;;;;;7.88;2.67;;;;;;;;;;6207124;23;20039;-45
2021/12/29 03:16:20;;;;;;;17.05;4.18;;;;;;;;;;6207410;23;20016;-46
2021/12/29 03:18:46;;;;;;;6.20;3.70;;;;;;;;;;6208742;23;20012;-45
2021/12/29 03:21:12;;;;;;;13.20;4.72;;;;;;;;;;6208313;23;20028;-46
2021/12/29 03:23:37;;;;;;;16.10;3.67;;;;;;;;;;6208139;23;20043;-46
2021/12/29 03:26:02;;;;;;;11.35;4.53;;;;;;;;;;6206487;23;20008;-46
2021/12/29 03:28:28;;;;;;;17.52;4.30;;;;;;;;;;6207825;23;20028;-45
2021/12/29 03:30:55;;;;;;;15.07;3.70;;;;;;;;;;6208558;23;20013;-45
2021/12/29 03:33:21;;;;;;;15.27;4.10;;;;;;;;;;6207393;23;20020;-47
2021/12/29 03:35:48;;;;;;;10.25;4.05;;;;;;;;;;6208487;23;20015;-45
2021/12/29 03:38:17;;;;;;;14.63;3.30;;;;;;;;;;6207974;23;20017;-45
2021/12/29 03:40:42;;;;;;;17.38;3.80;;;;;;;;;;6206912;23;20024;-46
2021/12/29 03:43:08;;;;;;;12.50;3.70;;;;;;;;;;6208528;23;20463;-49
2021/12/29 03:45:34;;;;;;;9.60;2.88;;;;;;;;;;6207540;23;20013;-46
2021/12/29 03:47:59;;;;;;;8.90;3.80;;;;;;;;;;6206797;23;20066;-45
2021/12/29 03:50:25;;;;;;;11.52;3.97;;;;;;;;;;6202025;23;20052;-48
2021/12/29 03:52:50;;;;;;;13.18;4.00;;;;;;;;;;6207886;23;20457;-48
2021/12/29 03:55:15;;;;;;;9.27;3.05;;;;;;;;;;6207543;23;20017;-50
2021/12/29 03:57:41;;;;;;;14.40;3.10;;;;;;;;;;6208319;23;20019;-47
2021/12/29 04:00:09;;;;;;;9.85;3.45;;;;;;;;;;6208318;23;20021;-48
2021/12/29 04:02:34;;;;;;;13.55;3.55;;;;;;;;;;6207464;23;20017;-45
2021/12/29 04:05:01;;;;;;;13.00;3.80;;;;;;;;;;6208179;23;20015;-46
2021/12/29 04:07:26;;;;;;;11.95;3.53;;;;;;;;;;6207276;23;20017;-45
2021/12/29 04:09:51;;;;;;;9.82;3.20;;;;;;;;;;6208218;23;20024;-46
2021/12/29 04:12:16;;;;;;;15.20;3.30;;;;;;;;;;6207239;23;20016;-46
2021/12/29 04:14:42;;;;;;;16.33;3.58;;;;;;;;;;6208227;23;20438;-46
2021/12/29 04:17:13;;;;;;;9.68;4.30;;;;;;;;;;6207984;23;20009;-45
2021/12/29 04:22:22;;;;;;;10.00;3.45;;;;;;;;;;6206922;23;20499;-47
2021/12/29 04:24:49;;;;;;;15.40;3.13;;;;;;;;;;6231002;23;20009;-45
2021/12/29 04:27:15;;;;;;;9.20;3.92;;;;;;;;;;6207324;23;20092;-44
2021/12/29 04:29:40;;;;;;;14.38;4.22;;;;;;;;;;6207833;23;20055;-50
2021/12/29 04:32:06;;;;;;;11.85;3.72;;;;;;;;;;6208438;23;20001;-47
2021/12/29 04:34:31;;;;;;;13.93;3.60;;;;;;;;;;6205350;23;20397;-47
2021/12/29 04:36:56;;;;;;;6.63;2.90;;;;;;;;;;6208129;23;20449;-47
2021/12/29 04:39:21;;;;;;;13.13;3.30;;;;;;;;;;6205975;23;20384;-46
2021/12/29 04:41:47;;;;;;;11.40;2.83;;;;;;;;;;6208171;23;20058;-45
2021/12/29 04:44:12;;;;;;;9.40;2.45;;;;;;;;;;6207436;23;20013;-46
2021/12/29 04:46:40;;;;;;;8.48;2.88;;;;;;;;;;6207378;23;20017;-46
2021/12/29 04:49:06;;;;;;;7.63;2.88;;;;;;;;;;6206807;23;20004;-45
2021/12/29 04:51:35;;;;;;;4.72;2.00;;;;;;;;;;6206760;23;20028;-46
2021/12/29 04:54:05;;;;;;;6.28;2.17;;;;;;;;;;6207607;23;20020;-45
2021/12/29 04:56:31;;;;;;;6.07;2.20;;;;;;;;;;6206866;23;20056;-46
2021/12/29 04:58:56;;;;;;;7.35;1.98;;;;;;;;;;6207263;23;20350;-45
2021/12/29 05:01:21;;;;;;;7.68;2.63;;;;;;;;;;6206728;23;20357;-45
2021/12/29 05:03:47;;;;;;;8.02;2.85;;;;;;;;;;6207651;23;20437;-47
2021/12/29 05:08:38;;;;;;;6.85;2.00;;;;;;;;;;6207599;23;20376;-44
2021/12/29 05:11:07;;;;;;;2.92;1.95;;;;;;;;;;6207430;23;20019;-46
2021/12/29 05:13:33;;;;;;;4.60;1.52;;;;;;;;;;6206828;23;20475;-45
2021/12/29 05:15:59;;;;;;;1.65;1.30;;;;;;;;;;6207131;23;20099;-45
2021/12/29 05:18:25;;;;;;;8.32;1.65;;;;;;;;;;6206671;23;20024;-46
2021/12/29 05:20:51;;;;;;;4.20;1.45;;;;;;;;;;6207429;23;20139;-45
2021/12/29 05:23:16;;;;;;;2.22;1.20;;;;;;;;;;6206851;23;20009;-47
2021/12/29 05:25:41;;;;;;;1.88;0.90;;;;;;;;;;6207188;23;20016;-46
2021/12/29 05:28:07;;;;;;;1.90;1.27;;;;;;;;;;6207606;23;20061;-45
2021/12/29 05:30:32;;;;;;;3.90;0.90;;;;;;;;;;6206338;23;20096;-47
2021/12/29 05:32:58;;;;;;;1.90;0.82;;;;;;;;;;6207365;23;20017;-44
2021/12/29 05:35:23;;;;;;;4.20;0.63;;;;;;;;;;6206858;23;20075;-46
2021/12/29 05:37:48;;;;;;;1.35;0.60;;;;;;;;;;6207514;23;20016;-45
2021/12/29 05:40:15;;;;;;;0.80;0.65;;;;;;;;;;6206572;23;20134;-45
2021/12/29 05:42:40;;;;;;;1.52;0.70;;;;;;;;;;6207446;23;20106;-46
2021/12/29 05:45:07;;;;;;;0.82;0.40;;;;;;;;;;6207492;23;20465;-46
2021/12/29 05:47:32;;;;;;;0.52;0.47;;;;;;;;;;6205571;23;20470;-45
2021/12/29 05:49:58;;;;;;;4.25;0.50;;;;;;;;;;6206967;23;20027;-45
2021/12/29 05:52:23;;;;;;;0.82;0.50;;;;;;;;;;6206889;23;20041;-46
2021/12/29 05:54:49;;;;;;;1.83;1.23;;;;;;;;;;6207290;23;20020;-45
2021/12/29 05:57:14;;;;;;;0.98;0.47;;;;;;;;;;6206743;23;20482;-45
2021/12/29 05:59:40;;;;;;;0.40;0.40;;;;;;;;;;6206881;23;20028;-47
2021/12/29 06:02:05;;;;;;;1.08;0.40;;;;;;;;;;6207568;23;20009;-45
2021/12/29 06:04:30;;;;;;;0.85;0.43;;;;;;;;;;6206877;23;20004;-45
2021/12/29 06:06:56;;;;;;;0.82;0.40;;;;;;;;;;6206930;23;20055;-46
2021/12/29 06:09:21;;;;;;;1.23;0.82;;;;;;;;;;6206727;23;20016;-46
2021/12/29 06:11:46;;;;;;;1.58;0.75;;;;;;;;;;6207268;23;20013;-46
2021/12/29 06:14:11;;;;;;;1.05;0.60;;;;;;;;;;6206885;23;20348;-45
2021/12/29 06:16:36;;;;;;;1.80;0.50;;;;;;;;;;6206652;23;20039;-45
2021/12/29 06:19:02;;;;;;;0.32;0.32;;;;;;;;;;6205623;23;20019;-47
2021/12/29 06:21:27;;;;;;;0.85;0.55;;;;;;;;;;6206365;23;20100;-46
2021/12/29 06:23:52;;;;;;;0.57;0.55;;;;;;;;;;6206725;23;20008;-46
2021/12/29 06:26:18;;;;;;;0.60;0.57;;;;;;;;;;6206474;23;20017;-44
2021/12/29 06:28:44;;;;;;;0.73;0.68;;;;;;;;;;6207007;23;20010;-46
2021/12/29 06:31:09;;;;;;;2.40;0.73;;;;;;;;;;6206399;23;20338;-43
2021/12/29 06:33:34;;;;;;;1.33;0.60;;;;;;;;;;6207706;23;20171;-45
2021/12/29 06:36:00;;;;;;;0.55;0.55;;;;;;;;;;6207091;23;20059;-45
2021/12/29 06:38:25;;;;;;;1.25;1.05;;;;;;;;;;6206948;23;20392;-45
2021/12/29 06:40:51;;;;;;;0.80;0.60;;;;;;;;;;6207057;23;20044;-45
2021/12/29 06:43:16;;;;;;;0.57;0.50;;;;;;;;;;6207238;23;20009;-45
2021/12/29 06:45:41;;;;;;;0.90;0.85;;;;;;;;;;6209116;23;20116;-47
2021/12/29 06:48:07;;;;;;;0.80;0.65;;;;;;;;;;6208527;23;20020;-46
2021/12/29 06:50:32;;;;;;;0.90;0.70;;;;;;;;;;6207986;23;20338;-46
2021/12/29 06:52:57;;;;;;;1.25;1.00;;;;;;;;;;6208462;23;20023;-46
2021/12/29 06:55:23;;;;;;;0.60;0.52;;;;;;;;;;6207696;23;20064;-45
2021/12/29 06:57:48;;;;;;;0.95;0.93;;;;;;;;;;6208652;23;20017;-45
2021/12/29 07:00:14;;;;;;;1.25;1.13;;;;;;;;;;6208209;23;20043;-47
2021/12/29 07:02:39;;;;;;;1.42;1.20;;;;;;;;;;6232201;23;20017;-47
2021/12/29 07:05:04;;;;;;;1.92;1.52;;;;;;;;;;6209030;23;20012;-47
2021/12/29 07:07:30;;;;;;;3.08;1.80;;;;;;;;;;6208516;23;20004;-48
2021/12/29 07:09:55;;;;;;;2.58;1.80;;;;;;;;;;6208640;23;20083;-45
2021/12/29 07:12:21;;;;;;;2.05;1.75;;;;;;;;;;6208073;23;20016;-45
2021/12/29 07:14:46;;;;;;;3.08;1.88;;;;;;;;;;6208533;23;20519;-45
2021/12/29 07:17:12;;;;;;;3.22;2.28;;;;;;;;;;6208333;23;20016;-47
2021/12/29 07:19:37;;;;;;;4.05;2.08;;;;;;;;;;6208432;23;20017;-46
2021/12/29 07:22:03;;;;;;;3.53;2.70;;;;;;;;;;6231945;23;20048;-46
2021/12/29 07:24:29;;;;;;;3.22;2.47;;;;;;;;;;6208100;23;20030;-45
2021/12/29 07:26:54;;;;;;;4.30;2.45;;;;;;;;;;6208801;23;20108;-46
2021/12/29 07:29:20;;;;;;;4.75;3.22;;;;;;;;;;6207912;23;20013;-45
2021/12/29 07:31:45;;;;;;;3.38;2.42;;;;;;;;;;6208730;23;20086;-47
2021/12/29 07:34:10;;;;;;;4.03;3.08;;;;;;;;;;6207703;23;20059;-46
2021/12/29 07:36:35;;;;;;;6.38;3.22;;;;;;;;;;6208338;23;20091;-46
2021/12/29 07:39:01;;;;;;;4.97;2.50;;;;;;;;;;6208289;23;20417;-46
2021/12/29 07:41:26;;;;;;;3.72;2.47;;;;;;;;;;6208029;23;20052;-46
2021/12/29 07:43:52;;;;;;;3.38;2.50;;;;;;;;;;6208064;23;20051;-47
2021/12/29 07:46:17;;;;;;;6.13;3.28;;;;;;;;;;6206007;23;20005;-45
2021/12/29 07:48:43;;;;;;;5.60;2.65;;;;;;;;;;6208219;23;20439;-47
2021/12/29 07:51:09;;;;;;;7.13;3.35;;;;;;;;;;6208446;23;20020;-45
2021/12/29 07:53:37;;;;;;;6.00;3.50;;;;;;;;;;6207670;23;20012;-45
2021/12/29 07:56:04;;;;;;;8.98;4.30;;;;;;;;;;6208389;23;20616;-45
2021/12/29 07:58:30;;;;;;;4.93;3.20;;;;;;;;;;6207282;23;20012;-45
2021/12/29 08:00:55;;;;;;;4.82;3.03;;;;;;;;;;6208591;23;20016;-46
2021/12/29 08:03:20;;;;;;;8.02;3.90;;;;;;;;;;6207024;23;20012;-46
2021/12/29 08:05:46;;;;;;;6.75;3.63;;;;;;;;;;6208257;23;20327;-46
2021/12/29 08:08:11;;;;;;;5.95;2.80;;;;;;;;;;6207727;23;20009;-47
2021/12/29 08:10:37;;;;;;;6.78;3.03;;;;;;;;;;6208451;23;20019;-46
2021/12/29 08:13:04;;;;;;;6.25;3.10;;;;;;;;;;6207909;23;20040;-46
2021/12/29 08:15:29;;;;;;;6.95;3.78;;;;;;;;;;6207414;23;20790;-47
2021/12/29 08:17:56;;;;;;;6.03;3.13;;;;;;;;;;6207728;23;20021;-45
2021/12/29 08:20:21;;;;;;;9.77;4.05;;;;;;;;;;6207179;23;20027;-45
2021/12/29 08:22:47;;;;;;;5.30;3.33;;;;;;;;;;6207793;23;20001;-45
2021/12/29 08:25:12;;;;;;;8.30;3.28;;;;;;;;;;6207737;23;20016;-45
2021/12/29 08:27:38;;;;;;;5.85;3.13;;;;;;;;;;6207736;23;20017;-45
2021/12/29 08:30:05;;;;;;;4.60;2.67;;;;;;;;;;6208318;23;20012;-46
2021/12/29 08:32:31;;;;;;;5.00;2.80;;;;;;;;;;6205316;23;20453;-46
2021/12/29 08:34:56;;;;;;;4.63;2.95;;;;;;;;;;6208190;23;20021;-49
2021/12/29 08:37:21;;;;;;;4.43;2.10;;;;;;;;;;6206973;23;20008;-46
2021/12/29 08:39:46;;;;;;;2.85;1.58;;;;;;;;;;6208016;23;20033;-45
2021/12/29 08:42:12;;;;;;;2.78;1.80;;;;;;;;;;6207092;23;20082;-46
2021/12/29 08:44:37;;;;;;;2.45;1.20;;;;;;;;;;6208070;23;20008;-45
2021/12/29 08:47:03;;;;;;;0.82;0.80;;;;;;;;;;6207522;23;20107;-49
2021/12/29 08:49:28;;;;;;;3.53;0.95;;;;;;;;;;6207389;23;20011;-45
2021/12/29 08:51:53;;;;;;;1.13;0.70;;;;;;;;;;6207102;23;20405;-46
2021/12/29 08:54:18;;;;;;;0.50;0.50;;;;;;;;;;6207320;23;20073;-47
2021/12/29 08:56:44;;;;;;;0.50;0.50;;;;;;;;;;6207345;23;20020;-45
2021/12/29 08:59:10;;;;;;;1.45;0.75;;;;;;;;;;6207582;23;20027;-44
2021/12/29 09:01:35;;;;;;;1.08;0.50;;;;;;;;;;6207214;23;20398;-46
2021/12/29 09:04:00;;;;;;;0.25;0.20;;;;;;;;;;6207656;23;20009;-45
2021/12/29 09:06:26;;;;;;;0.30;0.20;;;;;;;;;;6206664;23;20001;-46
2021/12/29 09:08:51;;;;;;;0.40;0.30;;;;;;;;;;6208107;23;20012;-47
2021/12/29 09:11:16;;;;;;;0.45;0.30;;;;;;;;;;6206900;23;20369;-47
2021/12/29 09:13:41;;;;;;;0.52;0.30;;;;;;;;;;6207626;23;20017;-45
2021/12/29 09:16:07;;;;;;;0.22;0.22;;;;;;;;;;6207640;23;20013;-45
2021/12/29 09:18:33;;;;;;;0.52;0.25;;;;;;;;;;6207214;23;20013;-45
2021/12/29 09:21:06;;;;;;;0.30;0.30;;;;;;;;;;6207447;23;20032;-50
2021/12/29 09:23:33;;;;;;;0.60;0.40;;;;;;;;;;6206956;23;20793;-51
2021/12/29 09:25:58;;;;;;;0.30;0.30;;;;;;;;;;6207642;23;20111;-47
2021/12/29 09:28:23;;;;;;;0.30;0.30;;;;;;;;;;6207300;23;20400;-48
2021/12/29 09:30:49;;;;;;;0.30;0.30;;;;;;;;;;6207289;23;20363;-53
2021/12/29 09:33:17;;;;;;;1.05;0.52;;;;;;;;;;6207021;23;20012;-48
2021/12/29 09:35:42;;;;;;;0.20;0.20;;;;;;;;;;6207542;23;20013;-50
2021/12/29 09:38:08;;;;;;;0.30;0.30;;;;;;;;;;6207845;23;20023;-47
2021/12/29 09:40:34;;;;;;;0.35;0.30;;;;;;;;;;6206794;23;20025;-50
2021/12/29 09:42:59;;;;;;;0.68;0.50;;;;;;;;;;6207804;23;20016;-50
2021/12/29 09:45:25;;;;;;;0.95;0.32;;;;;;;;;;6206747;23;20016;-50
2021/12/29 09:47:50;;;;;;;0.40;0.40;;;;;;;;;;6207704;23;20012;-49
2021/12/29 09:50:17;;;;;;;0.57;0.50;;;;;;;;;;6205763;23;20035;-49
2021/12/29 09:52:43;;;;;;;0.52;0.40;;;;;;;;;;6205755;23;20091;-51
2021/12/29 09:55:10;;;;;;;0.43;0.32;;;;;;;;;;6207660;23;20044;-46
2021/12/29 09:57:36;;;;;;;0.63;0.50;;;;;;;;;;6206467;23;20021;-48
2021/12/29 10:00:04;;;;;;;0.43;0.22;;;;;;;;;;6207288;23;20077;-46
2021/12/29 10:02:29;;;;;;;0.40;0.40;;;;;;;;;;6206404;23;20013;-47
2021/12/29 10:04:56;;;;;;;0.70;0.60;;;;;;;;;;6207355;23;20115;-47
2021/12/29 10:07:22;;;;;;;1.90;0.43;;;;;;;;;;6206743;23;20020;-49
2021/12/29 10:09:48;;;;;;;1.13;0.50;;;;;;;;;;6207244;23;20013;-45
2021/12/29 10:12:21;;;;;;;1.55;0.80;;;;;;;;;;6206954;23;20460;-48
2021/12/29 10:14:50;;;;;;;1.13;0.50;;;;;;;;;;6207557;23;20020;-46
2021/12/29 10:17:16;;;;;;;4.30;1.20;;;;;;;;;;6207825;23;20080;-47
2021/12/29 10:19:41;;;;;;;1.02;0.75;;;;;;;;;;6209310;23;20022;-45
2021/12/29 10:22:06;;;;;;;0.70;0.70;;;;;;;;;;6209078;23;20062;-45
2021/12/29 10:24:32;;;;;;;0.70;0.65;;;;;;;;;;6208124;23;20008;-45
2021/12/29 10:26:57;;;;;;;0.65;0.43;;;;;;;;;;6209050;23;20012;-45
2021/12/29 10:29:23;;;;;;;0.65;0.55;;;;;;;;;;6208568;23;20091;-45
2021/12/29 10:31:50;;;;;;;1.77;0.70;;;;;;;;;;6209732;23;20020;-46
2021/12/29 10:34:18;;;;;;;1.20;0.43;;;;;;;;;;6208428;23;20013;-46
2021/12/29 10:36:43;;;;;;;0.55;0.52;;;;;;;;;;6209099;23;20032;-46
2021/12/29 10:39:11;;;;;;;1.85;0.45;;;;;;;;;;6208501;23;20353;-43
2021/12/29 10:41:45;;;;;;;3.13;0.73;;;;;;;;;;6208906;23;20024;-46
2021/12/29 10:44:12;;;;;;;0.40;0.40;;;;;;;;;;6208750;23;20039;-45
2021/12/29 10:46:38;;;;;;;0.85;0.40;;;;;;;;;;6208678;23;20464;-44
2021/12/29 10:49:04;;;;;;;0.73;0.40;;;;;;;;;;6209103;23;20009;-45
2021/12/29 10:51:31;;;;;;;0.25;0.22;;;;;;;;;;6208039;23;20028;-45
2021/12/29 10:54:03;;;;;;;0.52;0.43;;;;;;;;;;6208950;23;20032;-44
2021/12/29 10:56:29;;;;;;;0.20;0.20;;;;;;;;;;6208098;23;21462;-45
2021/12/29 10:58:55;;;;;;;0.55;0.40;;;;;;;;;;6208754;23;20031;-46
2021/12/29 11:01:21;;;;;;;0.20;0.20;;;;;;;;;;6207758;23;20021;-44
2021/12/29 11:03:47;;;;;;;0.95;0.38;;;;;;;;;;6208653;23;20035;-44
2021/12/29 11:06:14;;;;;;;0.40;0.40;;;;;;;;;;6231838;23;20342;-45
2021/12/29 11:08:50;;;;;;;0.63;0.32;;;;;;;;;;6208572;23;20120;-46
2021/12/29 11:11:16;;;;;;;1.00;0.77;;;;;;;;;;6208141;23;20011;-46
2021/12/29 11:13:41;;;;;;;1.08;0.20;;;;;;;;;;6208732;23;20008;-45
2021/12/29 11:16:07;;;;;;;1.20;0.30;;;;;;;;;;6208677;23;20028;-44
2021/12/29 11:18:41;;;;;;;0.30;0.30;;;;;;;;;;6208177;23;20013;-45
2021/12/29 11:21:06;;;;;;;0.63;0.30;;;;;;;;;;6208156;23;20405;-44
2021/12/29 11:23:32;;;;;;;0.50;0.32;;;;;;;;;;6207978;23;20008;-44
2021/12/29 11:26:00;;;;;;;1.90;0.95;;;;;;;;;;6208489;23;20009;-46
2021/12/29 11:28:27;;;;;;;1.35;0.10;;;;;;;;;;6207541;23;20349;-44
2021/12/29 11:30:53;;;;;;;0.52;0.52;;;;;;;;;;6208293;23;20008;-44
2021/12/29 11:33:18;;;;;;;1.70;0.30;;;;;;;;;;6207709;23;20020;-45
2021/12/29 11:35:48;;;;;;;4.03;0.60;;;;;;;;;;6208261;23;20536;-45
2021/12/29 11:38:14;;;;;;;0.57;0.50;;;;;;;;;;6207999;23;20380;-45
2021/12/29 11:40:40;;;;;;;2.08;0.30;;;;;;;;;;6208252;23;20021;-44
2021/12/29 11:43:07;;;;;;;2.45;0.50;;;;;;;;;;6208468;23;20067;-44
2021/12/29 11:45:33;;;;;;;0.52;0.32;;;;;;;;;;6207738;23;20382;-44
2021/12/29 11:47:58;;;;;;;1.48;0.20;;;;;;;;;;6208588;23;20021;-44
2021/12/29 11:50:30;;;;;;;0.52;0.40;;;;;;;;;;6207395;23;20028;-44
2021/12/29 11:52:59;;;;;;;2.08;0.70;;;;;;;;;;6208546;23;20012;-44
2021/12/29 11:55:30;;;;;;;5.00;0.50;;;;;;;;;;6207954;23;20044;-46
2021/12/29 11:57:55;;;;;;;5.82;0.93;;;;;;;;;;6208412;23;20079;-45
2021/12/29 12:00:21;;;;;;;3.35;0.80;;;;;;;;;;6207748;23;20392;-44
2021/12/29 12:02:49;;;;;;;1.55;1.13;;;;;;;;;;6208250;23;20004;-46
2021/12/29 12:05:15;;;;;;;5.72;1.65;;;;;;;;;;6207509;23;20012;-52
2021/12/29 12:07:42;;;;;;;6.68;1.50;;;;;;;;;;6208257;23;20012;-44
2021/12/29 12:10:09;;;;;;;5.63;1.52;;;;;;;;;;6208113;23;20019;-44
2021/12/29 12:12:46;;;;;;;5.05;1.65;;;;;;;;;;6207763;23;20484;-46
2021/12/29 12:15:12;;;;;;;3.75;1.13;;;;;;;;;;6207570;23;20055;-44
2021/12/29 12:17:38;;;;;;;2.05;0.98;;;;;;;;;;6207918;23;20012;-48
2021/12/29 12:20:05;;;;;;;3.20;1.50;;;;;;;;;;6208267;23;20025;-45
2021/12/29 12:22:40;;;;;;;3.15;1.70;;;;;;;;;;6206987;23;20000;-44
2021/12/29 12:25:05;;;;;;;5.82;2.20;;;;;;;;;;6208180;23;20020;-44
2021/12/29 12:27:35;;;;;;;10.02;4.15;;;;;;;;;;6207211;23;20005;-43
2021/12/29 12:30:06;;;;;;;5.75;1.98;;;;;;;;;;6208261;23;20032;-43
2021/12/29 12:32:52;;;;;;;5.72;1.95;;;;;;;;;;6207316;23;20079;-44
2021/12/29 12:35:29;;;;;;;7.70;2.45;;;;;;;;;;6206936;23;20013;-46
2021/12/29 12:37:54;;;;;;;10.40;3.42;;;;;;;;;;6207872;23;20088;-43
2021/12/29 12:40:27;;;;;;;12.88;4.20;;;;;;;;;;6206702;23;20094;-44
2021/12/29 12:43:07;;;;;;;15.23;3.80;;;;;;;;;;6207924;23;20109;-45
2021/12/29 12:45:33;;;;;;;9.23;3.80;;;;;;;;;;6206500;23;20107;-44
2021/12/29 12:48:05;;;;;;;9.73;3.20;;;;;;;;;;6207689;23;20036;-43
2021/12/29 12:50:30;;;;;;;14.45;3.85;;;;;;;;;;6207225;23;20043;-44
2021/12/29 12:52:56;;;;;;;12.13;3.42;;;;;;;;;;6207661;23;20499;-46
2021/12/29 12:55:22;;;;;;;11.88;3.22;;;;;;;;;;6205176;23;20016;-46
2021/12/29 12:57:50;;;;;;;16.63;4.05;;;;;;;;;;6207375;23;20012;-46
2021/12/29 13:00:17;;;;;;;12.00;3.63;;;;;;;;;;6205047;23;20366;-46
2021/12/29 13:02:46;;;;;;;10.80;4.45;;;;;;;;;;6207473;23;20007;-47
2021/12/29 13:05:13;;;;;;;11.70;4.05;;;;;;;;;;6206988;23;20357;-46
2021/12/29 13:07:40;;;;;;;17.27;5.05;;;;;;;;;;6207600;23;20012;-45
2021/12/29 13:10:06;;;;;;;19.77;4.95;;;;;;;;;;6207866;23;20017;-45
2021/12/29 13:12:36;;;;;;;14.35;4.97;;;;;;;;;;6207152;23;20012;-46
2021/12/29 13:15:06;;;;;;;13.85;4.13;;;;;;;;;;6207249;23;20460;-46
2021/12/29 13:17:31;;;;;;;10.85;4.07;;;;;;;;;;6206815;23;20475;-46
2021/12/29 13:19:57;;;;;;;13.05;5.75;;;;;;;;;;6207307;23;20013;-46
2021/12/29 13:22:26;;;;;;;16.67;5.85;;;;;;;;;;6207092;23;20016;-45
2021/12/29 13:24:52;;;;;;;12.18;5.65;;;;;;;;;;6207500;23;20019;-46
2021/12/29 13:27:21;;;;;;;10.48;3.70;;;;;;;;;;6207092;23;20013;-46
2021/12/29 13:29:55;;;;;;;15.63;4.95;;;;;;;;;;6208132;23;20772;-46
2021/12/29 13:32:20;;;;;;;15.48;5.20;;;;;;;;;;6206417;23;20124;-45
2021/12/29 13:34:45;;;;;;;14.35;3.90;;;;;;;;;;6207357;23;20032;-46
2021/12/29 13:37:11;;;;;;;7.97;3.20;;;;;;;;;;6206692;23;20016;-45
2021/12/29 13:39:36;;;;;;;17.75;5.53;;;;;;;;;;6207830;23;20326;-47
2021/12/29 13:42:01;;;;;;;14.07;6.10;;;;;;;;;;6207242;23;20508;-45
2021/12/29 13:44:28;;;;;;;11.25;4.30;;;;;;;;;;6206710;23;20031;-46
2021/12/29 13:46:53;;;;;;;19.23;5.65;;;;;;;;;;6207273;23;20067;-48
2021/12/29 13:49:19;;;;;;;10.43;4.05;;;;;;;;;;6206678;23;20376;-47
2021/12/29 13:51:45;;;;;;;14.02;4.75;;;;;;;;;;6207424;23;20024;-46
2021/12/29 13:54:11;;;;;;;18.27;4.82;;;;;;;;;;6208991;23;20100;-46
2021/12/29 13:56:39;;;;;;;14.98;3.92;;;;;;;;;;6209120;23;20032;-48
2021/12/29 13:59:07;;;;;;;14.98;4.10;;;;;;;;;;6209449;23;20028;-46
2021/12/29 14:01:34;;;;;;;15.98;4.38;;;;;;;;;;6208531;23;20091;-45
2021/12/29 14:04:00;;;;;;;17.75;4.80;;;;;;;;;;6209440;23;20089;-46
2021/12/29 14:06:25;;;;;;;12.52;4.05;;;;;;;;;;6208813;23;20108;-45
2021/12/29 14:08:51;;;;;;;20.85;4.53;;;;;;;;;;6209661;23;20009;-46
2021/12/29 14:11:17;;;;;;;15.88;4.82;;;;;;;;;;6208342;23;20048;-46
2021/12/29 14:13:49;;;;;;;13.45;4.72;;;;;;;;;;6209701;23;20318;-47
2021/12/29 14:16:17;;;;;;;18.27;5.85;;;;;;;;;;6208269;23;20071;-46
2021/12/29 14:18:54;;;;;;;14.43;4.68;;;;;;;;;;6209883;23;20066;-46
2021/12/29 14:21:27;;;;;;;23.58;6.80;;;;;;;;;;6208503;23;20229;-48
2021/12/29 14:23:54;;;;;;;19.55;6.43;;;;;;;;;;6207882;23;20034;-45
2021/12/29 14:26:20;;;;;;;18.48;5.63;;;;;;;;;;6208297;23;20012;-46
2021/12/29 14:28:55;;;;;;;22.92;7.15;;;;;;;;;;6209063;23;20047;-46
2021/12/29 14:31:22;;;;;;;14.90;5.13;;;;;;;;;;6208849;23;20531;-45
2021/12/29 14:33:49;;;;;;;17.23;4.88;;;;;;;;;;6209010;23;20004;-46
2021/12/29 14:36:17;;;;;;;14.32;5.05;;;;;;;;;;6208360;23;20552;-45
2021/12/29 14:38:42;;;;;;;20.20;5.32;;;;;;;;;;6209111;23;20032;-46
2021/12/29 14:41:21;;;;;;;22.27;5.63;;;;;;;;;;6209335;23;20025;-45
2021/12/29 14:43:48;;;;;;;17.13;6.47;;;;;;;;;;6208291;23;20008;-45
2021/12/29 14:46:13;;;;;;;22.42;6.90;;;;;;;;;;6208505;23;20012;-45